Time;durP1;ratioP1;P1;durP2;ratioP2;P2;SDS_P1;SDS_P2;PMS_P1;PMS_P2;Temp;Humidity;BMP_temperature;BMP_pressure;BME280_temperature;BME280_humidity;BME280_pressure;Samples;Min_cycle;Max_cycle;Signal;HPM_P1;HPM_P2
2022/09/27 00:00:36;;;;;;;;;;;;;;;13.73;70.34;99015.63;5062080;28;19932;-76
2022/09/27 00:03:03;;;;;;;;;;;;;;;13.86;69.57;99018.78;5065981;28;19932;-76
2022/09/27 00:05:29;;;;;;;;;;;;;;;13.56;69.59;99011.88;5072522;28;19929;-75
2022/09/27 00:07:56;;;;;;;;;;;;;;;13.84;69.74;99001.47;5062771;28;19959;-76
2022/09/27 00:10:22;;;;;;;;;;;;;;;13.53;70.58;99009.53;5063098;28;19932;-74
2022/09/27 00:12:48;;;;;;;;;;;;;;;13.59;70.65;98998.47;5061496;28;19928;-74
2022/09/27 00:15:15;;;;;;;;;;;;;;;13.50;71.41;98999.28;5063848;28;19931;-74
2022/09/27 00:17:43;;;;;;;;;;;;;;;13.51;70.41;99000.13;5063392;28;19955;-74
2022/09/27 00:20:10;;;;;;;;;;;;;;;13.65;71.00;98986.53;5063247;28;19924;-74
2022/09/27 00:22:36;;;;;;;;;;;;;;;13.21;72.09;98982.66;5063743;28;19978;-74
2022/09/27 00:25:04;;;;;;;;;;;;;;;13.45;71.57;98980.44;5063157;28;19963;-74
2022/09/27 00:27:31;;;;;;;;;;;;;;;13.35;71.87;98987.50;5060863;28;20008;-74
2022/09/27 00:29:57;;;;;;;;;;;;;;;12.92;72.66;98982.63;5063101;28;19925;-75
2022/09/27 00:32:23;;;;;;;;;;;;;;;13.03;72.53;98976.41;5074010;28;20014;-74
2022/09/27 00:34:51;;;;;;;;;;;;;;;13.08;72.58;98974.19;5081861;28;20334;-74
2022/09/27 00:37:17;;;;;;;;;;;;;;;13.25;72.55;98972.69;5060868;28;19968;-74
2022/09/27 00:39:43;;;;;;;;;;;;;;;12.94;74.14;98964.88;5055563;28;19936;-74
2022/09/27 00:42:10;;;;;;;;;;;;;;;13.37;73.17;98971.59;5060021;28;20669;-75
2022/09/27 00:44:59;;;;;;;;;;;;;;;13.49;72.85;98960.75;5064103;28;20037;-75
2022/09/27 00:47:27;;;;;;;;;;;;;;;13.35;73.50;98955.91;5041982;28;19936;-75
2022/09/27 00:49:57;;;;;;;;;;;;;;;13.38;73.83;98946.91;5061217;28;19928;-74
2022/09/27 00:52:27;;;;;;;;;;;;;;;13.48;73.93;98945.94;5063435;28;19976;-75
2022/09/27 00:54:55;;;;;;;;;;;;;;;13.21;74.31;98947.63;5062550;28;20348;-75
2022/09/27 00:57:22;;;;;;;;;;;;;;;13.30;74.10;98949.44;5062939;28;19940;-75
2022/09/27 00:59:51;;;;;;;;;;;;;;;13.18;73.77;98943.47;5044173;28;19956;-74
2022/09/27 01:02:17;;;;;;;;;;;;;;;13.38;74.78;98931.94;5058477;28;20296;-74
2022/09/27 01:04:44;;;;;;;;;;;;;;;12.89;75.88;98918.94;5065801;28;19928;-74
2022/09/27 01:07:12;;;;;;;;;;;;;;;12.69;78.11;98934.69;5067829;28;19929;-74
2022/09/27 01:09:38;;;;;;;;;;;;;;;12.51;79.17;98915.28;5065332;28;19982;-74
2022/09/27 01:12:08;;;;;;;;;;;;;;;12.71;77.88;98921.41;5066395;28;19928;-74
2022/09/27 01:14:41;;;;;;;;;;;;;;;12.79;78.41;98918.06;5068609;28;20343;-74
2022/09/27 01:17:14;;;;;;;;;;;;;;;12.95;77.66;98919.19;5068244;28;19974;-74
2022/09/27 01:19:50;;;;;;;;;;;;;;;12.94;78.14;98919.31;5080474;28;19928;-74
2022/09/27 01:22:22;;;;;;;;;;;;;;;12.83;78.79;98917.66;5085676;28;19928;-74
2022/09/27 01:24:55;;;;;;;;;;;;;;;12.91;78.61;98916.97;5086213;28;20429;-74
2022/09/27 01:27:36;;;;;;;;;;;;;;;12.75;80.00;98911.47;5067786;28;19928;-74
2022/09/27 01:30:16;;;;;;;;;;;;;;;12.74;80.14;98915.03;5052875;28;19968;-74
2022/09/27 01:32:48;;;;;;;;;;;;;;;12.96;79.27;98920.03;5065015;28;19982;-74
2022/09/27 01:35:20;;;;;;;;;;;;;;;12.62;80.99;98911.69;5066521;28;19928;-74
2022/09/27 01:37:51;;;;;;;;;;;;;;;12.40;81.86;98914.56;5064913;28;19992;-74
2022/09/27 01:40:24;;;;;;;;;;;;;;;12.79;81.05;98907.56;5066999;28;19982;-74
2022/09/27 01:42:58;;;;;;;;;;;;;;;12.42;82.25;98891.59;5057668;28;19929;-74
2022/09/27 01:45:28;;;;;;;;;;;;;;;12.49;82.15;98901.44;5066293;28;19962;-74
2022/09/27 01:47:56;;;;;;;;;;;;;;;12.65;82.57;98896.47;5073672;28;19932;-74
2022/09/27 01:50:24;;;;;;;;;;;;;;;12.57;82.55;98890.22;5065481;28;19986;-75
2022/09/27 01:52:54;;;;;;;;;;;;;;;12.74;81.37;98888.75;5072142;28;19924;-75
2022/09/27 01:55:22;;;;;;;;;;;;;;;12.83;81.49;98888.75;5088626;28;19974;-75
2022/09/27 01:57:53;;;;;;;;;;;;;;;12.60;81.87;98887.34;5058837;28;19926;-76
2022/09/27 02:00:20;;;;;;;;;;;;;;;12.59;81.74;98885.69;5066615;28;20294;-75
2022/09/27 02:02:50;;;;;;;;;;;;;;;12.47;83.07;98886.78;5087685;28;20322;-75
2022/09/27 02:05:16;;;;;;;;;;;;;;;12.58;83.15;98873.50;5078302;28;19925;-75
2022/09/27 02:07:46;;;;;;;;;;;;;;;12.75;82.62;98870.19;5066098;28;19932;-75
2022/09/27 02:10:15;;;;;;;;;;;;;;;12.69;82.30;98876.84;5067269;28;19994;-75
2022/09/27 02:12:50;;;;;;;;;;;;;;;13.18;79.85;98868.94;5066505;28;19978;-75
2022/09/27 02:15:17;;;;;;;;;;;;;;;12.89;80.92;98868.94;5067703;28;19924;-75
2022/09/27 02:17:45;;;;;;;;;;;;;;;12.69;81.91;98876.84;5078356;28;19928;-75
2022/09/27 02:20:15;;;;;;;;;;;;;;;12.98;81.50;98866.31;5087463;28;19981;-75
2022/09/27 02:22:44;;;;;;;;;;;;;;;13.13;80.41;98864.09;5088620;28;19924;-76
2022/09/27 02:25:14;;;;;;;;;;;;;;;13.04;80.58;98855.22;5086974;28;19969;-75
2022/09/27 02:27:44;;;;;;;;;;;;;;;12.80;81.70;98860.09;5067818;28;19924;-75
2022/09/27 02:30:12;;;;;;;;;;;;;;;12.78;82.17;98862.03;5070303;28;19924;-74
2022/09/27 02:32:38;;;;;;;;;;;;;;;12.77;82.18;98856.91;5064673;28;19932;-75
2022/09/27 02:35:08;;;;;;;;;;;;;;;12.93;82.07;98850.13;5063400;28;19982;-75
2022/09/27 02:37:35;;;;;;;;;;;;;;;12.93;81.98;98849.28;5066842;28;19978;-75
2022/09/27 02:40:03;;;;;;;;;;;;;;;12.75;83.41;98850.97;5065904;28;20012;-76
2022/09/27 02:42:30;;;;;;;;;;;;;;;12.89;82.22;98847.91;5066272;28;19925;-76
2022/09/27 02:44:56;;;;;;;;;;;;;;;12.80;83.40;98840.84;5064062;28;19925;-75
2022/09/27 02:47:32;;;;;;;;;;;;;;;12.52;83.95;98853.03;5067277;28;19978;-75
2022/09/27 02:50:07;;;;;;;;;;;;;;;12.96;82.17;98844.59;5064774;28;20442;-77
2022/09/27 02:52:39;;;;;;;;;;;;;;;13.00;82.31;98838.06;5045889;28;19974;-76
2022/09/27 02:55:10;;;;;;;;;;;;;;;12.66;84.10;98829.78;5052186;28;19928;-76
2022/09/27 02:57:41;;;;;;;;;;;;;;;12.49;84.80;98838.34;5064616;28;20402;-75
2022/09/27 03:00:10;;;;;;;;;;;;;;;12.92;83.49;98829.22;5066885;28;20342;-75
2022/09/27 03:02:44;;;;;;;;;;;;;;;13.26;81.25;98830.44;5066011;28;19924;-76
2022/09/27 03:05:13;;;;;;;;;;;;;;;13.38;81.18;98831.91;5063055;28;19925;-76
2022/09/27 03:07:40;;;;;;;;;;;;;;;13.07;82.20;98827.81;5063608;28;20350;-75
2022/09/27 03:10:07;;;;;;;;;;;;;;;13.05;82.28;98827.94;5065562;28;20342;-75
2022/09/27 03:12:33;;;;;;;;;;;;;;;13.18;82.29;98824.22;5065513;28;19930;-75
2022/09/27 03:15:00;;;;;;;;;;;;;;;12.89;83.49;98821.59;5065007;28;19970;-75
2022/09/27 03:17:26;;;;;;;;;;;;;;;12.99;83.29;98820.63;5066609;28;20359;-75
2022/09/27 03:19:52;;;;;;;;;;;;;;;13.35;80.90;98819.03;5063644;28;19946;-75
2022/09/27 03:22:19;;;;;;;;;;;;;;;13.61;80.20;98811.31;5063901;28;20296;-75
2022/09/27 03:24:46;;;;;;;;;;;;;;;12.84;82.84;98816.75;5066404;28;19979;-76
2022/09/27 03:27:13;;;;;;;;;;;;;;;13.03;83.12;98808.84;5064896;28;19924;-76
2022/09/27 03:29:39;;;;;;;;;;;;;;;13.21;82.24;98813.41;5064804;28;19925;-76
2022/09/27 03:32:05;;;;;;;;;;;;;;;12.98;82.81;98807.59;5066485;28;20365;-76
2022/09/27 03:34:31;;;;;;;;;;;;;;;12.80;83.55;98810.13;5063541;28;19946;-76
2022/09/27 03:36:58;;;;;;;;;;;;;;;13.19;81.92;98797.78;5060570;28;19978;-77
2022/09/27 03:39:24;;;;;;;;;;;;;;;13.25;81.21;98801.63;5065456;28;19928;-77
2022/09/27 03:41:51;;;;;;;;;;;;;;;13.07;81.49;98797.06;5064337;28;19937;-77
2022/09/27 03:44:18;;;;;;;;;;;;;;;13.32;81.26;98797.44;5065154;28;19925;-78
2022/09/27 03:46:44;;;;;;;;;;;;;;;13.47;79.85;98794.19;5083967;28;19928;-78
2022/09/27 03:49:10;;;;;;;;;;;;;;;13.25;81.56;98797.19;5083544;28;19928;-76
2022/09/27 03:51:37;;;;;;;;;;;;;;;13.29;81.05;98795.94;5079809;28;19929;-76
2022/09/27 03:54:03;;;;;;;;;;;;;;;12.77;83.03;98792.00;5066851;28;19929;-77
2022/09/27 03:56:29;;;;;;;;;;;;;;;12.97;82.81;98784.91;5064849;28;19924;-76
2022/09/27 03:58:57;;;;;;;;;;;;;;;13.24;80.88;98782.38;5066817;28;20437;-76
2022/09/27 04:01:24;;;;;;;;;;;;;;;13.41;80.70;98788.69;5065635;28;19928;-76
2022/09/27 04:03:51;;;;;;;;;;;;;;;13.07;82.38;98796.25;5063911;28;20442;-76
2022/09/27 04:06:17;;;;;;;;;;;;;;;12.86;83.55;98795.59;5064996;28;20378;-75
2022/09/27 04:08:44;;;;;;;;;;;;;;;12.93;83.33;98792.25;5065336;28;19939;-75
2022/09/27 04:11:11;;;;;;;;;;;;;;;12.73;84.26;98787.16;5063820;28;19925;-75
2022/09/27 04:13:37;;;;;;;;;;;;;;;12.36;86.18;98787.00;5066171;28;19924;-76
2022/09/27 04:16:05;;;;;;;;;;;;;;;12.39;86.23;98778.84;5084855;28;19924;-76
2022/09/27 04:18:31;;;;;;;;;;;;;;;12.34;85.96;98795.03;5083640;28;19924;-75
2022/09/27 04:20:57;;;;;;;;;;;;;;;12.23;87.22;98789.09;5085647;28;20057;-75
2022/09/27 04:23:23;;;;;;;;;;;;;;;12.36;86.29;98795.75;5065573;28;20426;-75
2022/09/27 04:25:50;;;;;;;;;;;;;;;12.34;86.51;98781.88;5064556;28;19925;-75
2022/09/27 04:28:16;;;;;;;;;;;;;;;12.29;86.82;98784.13;5065987;28;19932;-75
2022/09/27 04:30:42;;;;;;;;;;;;;;;12.33;86.80;98779.41;5064569;28;19956;-76
2022/09/27 04:33:10;;;;;;;;;;;;;;;12.34;87.04;98781.09;5063954;28;19932;-77
2022/09/27 04:38:22;;;;;;;;;;;;;;;12.17;88.83;98790.47;5069421;28;19947;-77
2022/09/27 04:40:49;;;;;;;;;;;;;;;12.27;87.04;98782.59;5073484;28;20416;-77
2022/09/27 04:43:15;;;;;;;;;;;;;;;12.49;86.70;98777.88;5072053;28;19957;-77
2022/09/27 04:45:42;;;;;;;;;;;;;;;12.48;86.08;98778.88;5067572;28;19924;-77
2022/09/27 04:48:10;;;;;;;;;;;;;;;12.12;88.13;98784.81;5068416;28;19925;-77
2022/09/27 04:50:36;;;;;;;;;;;;;;;12.31;87.31;98784.78;5067579;28;19924;-77
2022/09/27 04:53:03;;;;;;;;;;;;;;;12.12;88.58;98779.53;5067886;28;19928;-77
2022/09/27 04:55:30;;;;;;;;;;;;;;;12.36;86.85;98777.34;5065961;28;19928;-76
2022/09/27 04:57:56;;;;;;;;;;;;;;;12.73;85.59;98787.16;5069070;28;19978;-78
2022/09/27 05:00:23;;;;;;;;;;;;;;;12.92;85.02;98787.13;5067862;28;20622;-78
2022/09/27 05:02:49;;;;;;;;;;;;;;;12.67;84.88;98788.56;5041644;28;19924;-77
2022/09/27 05:05:17;;;;;;;;;;;;;;;12.61;85.87;98779.41;5067698;28;19924;-77
2022/09/27 05:07:43;;;;;;;;;;;;;;;12.42;86.23;98784.66;5068988;28;19982;-77
2022/09/27 05:10:09;;;;;;;;;;;;;;;12.76;85.86;98789.50;5066140;28;20311;-77
2022/09/27 05:12:35;;;;;;;;;;;;;;;12.54;85.32;98783.56;5067458;28;20296;-77
2022/09/27 05:15:02;;;;;;;;;;;;;;;12.69;85.14;98781.34;5069246;28;19932;-77
2022/09/27 05:17:28;;;;;;;;;;;;;;;12.98;84.14;98773.41;5067340;28;20285;-77
2022/09/27 05:19:54;;;;;;;;;;;;;;;12.83;84.15;98780.06;5067557;28;19929;-77
2022/09/27 05:22:22;;;;;;;;;;;;;;;12.80;84.92;98778.56;5069162;28;19924;-77
2022/09/27 05:24:48;;;;;;;;;;;;;;;12.75;84.86;98780.75;5067300;28;19977;-77
2022/09/27 05:27:17;;;;;;;;;;;;;;;12.89;83.67;98784.78;5063878;28;20331;-77
2022/09/27 05:29:43;;;;;;;;;;;;;;;12.84;84.14;98787.81;5084110;28;20410;-77
2022/09/27 05:32:09;;;;;;;;;;;;;;;12.53;85.23;98788.94;5086344;28;19946;-77
2022/09/27 05:34:36;;;;;;;;;;;;;;;12.66;84.56;98790.34;5085995;28;19970;-79
2022/09/27 05:37:02;;;;;;;;;;;;;;;12.56;85.15;98792.13;5080784;28;19928;-81
2022/09/27 05:39:30;;;;;;;;;;;;;;;12.69;84.89;98784.81;5077452;28;20269;-81
2022/09/27 05:41:56;;;;;;;;;;;;;;;12.62;84.73;98786.34;5066344;28;19928;-81
2022/09/27 05:44:24;;;;;;;;;;;;;;;12.83;83.68;98783.53;5069215;28;20007;-81
2022/09/27 05:46:51;;;;;;;;;;;;;;;13.06;82.85;98786.69;5083652;28;19977;-81
2022/09/27 05:49:17;;;;;;;;;;;;;;;13.33;81.17;98786.78;5074128;28;20400;-82
2022/09/27 05:51:43;;;;;;;;;;;;;;;13.08;82.60;98780.28;5065518;28;19932;-82
2022/09/27 05:54:09;;;;;;;;;;;;;;;13.14;82.41;98778.94;5066393;28;19936;-79
2022/09/27 05:56:37;;;;;;;;;;;;;;;13.37;81.28;98771.53;5067498;28;20380;-79
2022/09/27 05:59:03;;;;;;;;;;;;;;;13.28;81.87;98775.84;5082440;28;19978;-79
2022/09/27 06:01:30;;;;;;;;;;;;;;;13.10;82.02;98782.81;5067570;28;20376;-79
2022/09/27 06:03:56;;;;;;;;;;;;;;;13.36;81.22;98780.38;5072062;28;20346;-80
2022/09/27 06:06:22;;;;;;;;;;;;;;;12.99;83.22;98783.78;5074771;28;19974;-79
2022/09/27 06:08:49;;;;;;;;;;;;;;;12.83;83.75;98785.31;5064810;28;19924;-79
2022/09/27 06:11:15;;;;;;;;;;;;;;;12.64;84.47;98791.44;5066271;28;19925;-79
2022/09/27 06:13:43;;;;;;;;;;;;;;;12.92;83.69;98797.66;5067378;28;19933;-79
2022/09/27 06:16:10;;;;;;;;;;;;;;;12.93;84.54;98789.63;5076464;28;20376;-79
2022/09/27 06:18:36;;;;;;;;;;;;;;;13.31;82.91;98787.88;5078862;28;20390;-79
2022/09/27 06:21:03;;;;;;;;;;;;;;;12.89;84.07;98788.25;5074471;28;19933;-80
2022/09/27 06:23:31;;;;;;;;;;;;;;;13.19;83.32;98789.88;5064907;28;19932;-79
2022/09/27 06:26:00;;;;;;;;;;;;;;;13.25;82.32;98796.34;5065619;28;20125;-79
2022/09/27 06:28:26;;;;;;;;;;;;;;;13.22;82.70;98801.91;5011611;28;1702652;-79
2022/09/27 06:30:54;;;;;;;;;;;;;;;13.20;83.27;98807.31;5067152;28;20385;-79
2022/09/27 06:33:21;;;;;;;;;;;;;;;13.58;81.90;98801.91;5075957;28;19924;-79
2022/09/27 06:35:48;;;;;;;;;;;;;;;13.19;82.89;98804.84;5079810;28;19924;-80
2022/09/27 06:38:16;;;;;;;;;;;;;;;13.37;82.71;98803.94;5068841;28;19984;-80
2022/09/27 06:40:44;;;;;;;;;;;;;;;13.65;80.93;98808.25;5078774;28;19977;-79
2022/09/27 06:43:11;;;;;;;;;;;;;;;14.02;79.56;98810.00;5074692;28;20346;-79
2022/09/27 06:45:38;;;;;;;;;;;;;;;14.10;79.68;98810.13;5066423;28;19989;-79
2022/09/27 06:48:06;;;;;;;;;;;;;;;14.28;78.70;98805.69;5067323;28;20330;-80
2022/09/27 06:50:33;;;;;;;;;;;;;;;14.45;78.40;98809.34;5078563;28;19931;-80
2022/09/27 06:52:59;;;;;;;;;;;;;;;14.18;79.09;98812.84;5068979;28;19925;-81
2022/09/27 06:55:26;;;;;;;;;;;;;;;14.00;79.86;98811.97;5066769;28;19928;-80
2022/09/27 07:00:43;;;;;;;;;;;;;;;13.47;82.05;98804.72;5016230;28;19937;-80
2022/09/27 07:03:12;;;;;;;;;;;;;;;13.48;82.77;98810.84;5079072;28;19924;-80
2022/09/27 07:05:39;;;;;;;;;;;;;;;13.90;81.02;98805.91;5078901;28;20453;-80
2022/09/27 07:08:05;;;;;;;;;;;;;;;13.80;81.25;98811.25;5068839;28;20007;-80
2022/09/27 07:10:34;;;;;;;;;;;;;;;13.88;80.67;98813.16;5078652;28;19924;-80
2022/09/27 07:13:04;;;;;;;;;;;;;;;13.98;80.91;98813.91;5057922;28;19924;-80
2022/09/27 07:15:31;;;;;;;;;;;;;;;13.80;81.60;98810.41;5066948;28;20424;-78
2022/09/27 07:17:58;;;;;;;;;;;;;;;13.38;83.21;98817.91;5067380;28;19928;-78
2022/09/27 07:20:25;;;;;;;;;;;;;;;13.22;84.28;98807.19;5074455;28;20326;-78
2022/09/27 07:22:52;;;;;;;;;;;;;;;13.32;84.27;98811.44;5065653;28;19970;-78
2022/09/27 07:25:19;;;;;;;;;;;;;;;13.63;82.68;98819.94;5082979;28;20338;-78
2022/09/27 07:27:45;;;;;;;;;;;;;;;13.93;82.76;98818.81;5066414;28;19981;-80
2022/09/27 07:30:12;;;;;;;;;;;;;;;14.18;80.98;98823.38;5066545;28;19925;-80
2022/09/27 07:32:38;;;;;;;;;;;;;;;14.32;81.51;98816.75;5066734;28;19928;-80
2022/09/27 07:35:06;;;;;;;;;;;;;;;14.37;81.48;98823.28;5066034;28;19986;-80
2022/09/27 07:37:34;;;;;;;;;;;;;;;14.66;80.38;98816.97;5066720;28;19924;-80
2022/09/27 07:40:01;;;;;;;;;;;;;;;14.73;79.02;98821.47;5067006;28;19925;-79
2022/09/27 07:42:28;;;;;;;;;;;;;;;14.78;79.02;98826.31;5059818;28;19932;-78
2022/09/27 07:44:54;;;;;;;;;;;;;;;14.25;80.29;98829.72;5067724;28;19925;-78
2022/09/27 07:47:22;;;;;;;;;;;;;;;14.43;78.81;98835.03;5070003;28;19924;-79
2022/09/27 07:49:49;;;;;;;;;;;;;;;14.13;80.59;98831.72;5079834;28;20307;-79
2022/09/27 07:52:15;;;;;;;;;;;;;;;14.08;79.22;98826.06;5069601;28;20314;-79
2022/09/27 07:54:43;;;;;;;;;;;;;;;14.23;79.64;98828.22;5076855;28;19977;-79
2022/09/27 07:57:10;;;;;;;;;;;;;;;14.56;77.09;98836.31;5071467;28;19933;-79
2022/09/27 07:59:36;;;;;;;;;;;;;;;14.50;77.17;98836.94;5065230;28;19936;-79
2022/09/27 08:02:02;;;;;;;;;;;;;;;14.63;76.62;98833.94;5065650;28;19928;-79
2022/09/27 08:04:28;;;;;;;;;;;;;;;14.87;76.38;98847.31;5065887;28;19978;-80
2022/09/27 08:06:55;;;;;;;;;;;;;;;14.78;75.73;98853.50;5065979;28;20339;-79
2022/09/27 08:09:21;;;;;;;;;;;;;;;14.48;77.60;98862.63;5072488;28;19977;-78
2022/09/27 08:11:49;;;;;;;;;;;;;;;14.38;78.35;98861.00;5085117;28;20373;-79
2022/09/27 08:14:15;;;;;;;;;;;;;;;14.10;78.72;98857.56;5083396;28;19927;-80
2022/09/27 08:16:41;;;;;;;;;;;;;;;13.85;79.36;98866.13;5065461;28;19932;-79
2022/09/27 08:19:07;;;;;;;;;;;;;;;13.63;80.42;98862.88;5063488;28;19929;-77
2022/09/27 08:21:34;;;;;;;;;;;;;;;13.95;80.42;98874.81;5066591;28;19924;-78
2022/09/27 08:24:00;;;;;;;;;;;;;;;13.90;80.74;98869.97;5065645;28;19925;-78
2022/09/27 08:26:27;;;;;;;;;;;;;;;14.10;80.47;98881.28;5075988;28;19932;-77
2022/09/27 08:28:55;;;;;;;;;;;;;;;14.00;80.20;98875.22;5070437;28;20441;-77
2022/09/27 08:31:22;;;;;;;;;;;;;;;14.45;78.87;98885.81;5067358;28;19978;-77
2022/09/27 08:33:49;;;;;;;;;;;;;;;14.39;79.82;98889.03;5063766;28;20407;-77
2022/09/27 08:36:15;;;;;;;;;;;;;;;14.41;77.76;98885.28;5080754;28;20368;-77
2022/09/27 08:38:41;;;;;;;;;;;;;;;14.46;78.81;98887.47;5066306;28;20448;-77
2022/09/27 08:41:12;;;;;;;;;;;;;;;14.34;78.88;98893.88;5063105;28;19955;-77
2022/09/27 08:43:41;;;;;;;;;;;;;;;14.32;79.52;98891.41;5061781;28;20446;-78
2022/09/27 08:46:22;;;;;;;;;;;;;;;14.43;78.13;98896.53;5066125;28;19994;-77
2022/09/27 08:48:52;;;;;;;;;;;;;;;14.43;77.82;98893.88;5070779;28;19928;-78
2022/09/27 08:51:27;;;;;;;;;;;;;;;14.35;77.53;98900.84;5074548;28;20422;-78
2022/09/27 08:53:57;;;;;;;;;;;;;;;14.37;79.45;98904.19;5075412;28;20006;-78
2022/09/27 08:56:23;;;;;;;;;;;;;;;14.10;78.57;98913.72;5076273;28;20437;-78
2022/09/27 08:58:51;;;;;;;;;;;;;;;14.06;80.44;98922.91;5069255;28;20363;-76
2022/09/27 09:01:19;;;;;;;;;;;;;;;14.20;79.35;98915.47;5065904;28;19925;-76
2022/09/27 09:03:47;;;;;;;;;;;;;;;14.45;77.74;98926.19;5065321;28;19925;-77
2022/09/27 09:06:16;;;;;;;;;;;;;;;14.59;76.77;98925.72;5067520;28;19974;-77
2022/09/27 09:08:51;;;;;;;;;;;;;;;14.58;77.90;98931.13;5065773;28;19931;-77
2022/09/27 09:14:16;;;;;;;;;;;;;;;14.84;77.95;98925.97;5084498;28;20564;-77
2022/09/27 09:16:46;;;;;;;;;;;;;;;15.10;76.43;98935.63;5064616;28;20364;-77
2022/09/27 09:19:22;;;;;;;;;;;;;;;15.05;77.44;98935.22;5085244;28;19924;-77
2022/09/27 09:21:56;;;;;;;;;;;;;;;14.74;79.08;98939.22;5087108;28;19974;-77
2022/09/27 09:24:27;;;;;;;;;;;;;;;15.42;78.17;98935.03;5087366;28;19924;-77
2022/09/27 09:26:58;;;;;;;;;;;;;;;15.14;78.00;98936.16;5078027;28;19978;-76
2022/09/27 09:29:32;;;;;;;;;;;;;;;15.19;79.49;98949.69;5084955;28;20330;-77
2022/09/27 09:32:05;;;;;;;;;;;;;;;14.96;78.06;98938.78;5087336;28;20367;-77
2022/09/27 09:34:34;;;;;;;;;;;;;;;15.07;77.09;98956.22;5084429;28;19924;-79
2022/09/27 09:37:02;;;;;;;;;;;;;;;15.10;77.45;98950.63;5068453;28;19970;-79
2022/09/27 09:39:33;;;;;;;;;;;;;;;15.46;78.19;98943.50;5069033;28;19971;-77
2022/09/27 09:42:03;;;;;;;;;;;;;;;15.87;75.79;98945.47;5066526;28;19932;-77
2022/09/27 09:44:32;;;;;;;;;;;;;;;15.54;75.82;98949.72;5067670;28;19978;-76
2022/09/27 09:47:00;;;;;;;;;;;;;;;15.49;75.71;98953.78;5067558;28;19929;-77
2022/09/27 09:49:30;;;;;;;;;;;;;;;15.11;77.58;98949.66;5066764;28;20549;-77
2022/09/27 09:52:00;;;;;;;;;;;;;;;14.94;77.06;98951.28;5067926;28;20292;-77
2022/09/27 09:54:30;;;;;;;;;;;;;;;14.85;78.54;98952.22;5067194;28;19931;-77
2022/09/27 09:56:59;;;;;;;;;;;;;;;14.69;77.47;98953.81;5060310;28;19932;-77
2022/09/27 09:59:29;;;;;;;;;;;;;;;14.81;78.12;98955.28;5066396;28;19974;-69
2022/09/27 10:01:59;;;;;;;;;;;;;;;14.93;79.10;98959.34;5066981;28;19932;-69
2022/09/27 10:04:26;;;;;;;;;;;;;;;14.63;77.09;98960.53;5068298;28;19968;-69
2022/09/27 10:06:55;;;;;;;;;;;;;;;14.49;77.59;98964.47;5063771;28;19931;-69
2022/09/27 10:09:24;;;;;;;;;;;;;;;14.59;78.60;98962.66;5065131;28;19954;-69
2022/09/27 10:11:50;;;;;;;;;;;;;;;14.79;77.55;98958.06;5065715;28;19936;-69
2022/09/27 10:14:18;;;;;;;;;;;;;;;14.63;76.29;98954.44;5070393;28;19974;-69
2022/09/27 10:16:46;;;;;;;;;;;;;;;14.83;77.06;98955.94;5081406;28;19946;-70
2022/09/27 10:19:13;;;;;;;;;;;;;;;14.70;76.78;98964.25;5065601;28;19928;-69
2022/09/27 10:21:41;;;;;;;;;;;;;;;14.44;77.93;98965.91;5081576;28;19974;-69
2022/09/27 10:24:10;;;;;;;;;;;;;;;14.49;77.74;98967.13;5065782;28;19924;-69
2022/09/27 10:26:37;;;;;;;;;;;;;;;14.58;79.74;98970.69;5065257;28;19936;-69
2022/09/27 10:29:17;;;;;;;;;;;;;;;14.98;78.54;98967.66;5067663;28;20434;-69
2022/09/27 10:31:46;;;;;;;;;;;;;;;14.90;78.07;98967.56;5045895;28;19929;-70
2022/09/27 10:34:18;;;;;;;;;;;;;;;14.80;77.89;98970.28;5064226;28;19924;-70
2022/09/27 10:36:45;;;;;;;;;;;;;;;15.03;77.20;98968.03;5064577;28;19928;-70
2022/09/27 10:39:20;;;;;;;;;;;;;;;14.81;76.70;98976.41;5063171;28;19970;-70
2022/09/27 10:41:47;;;;;;;;;;;;;;;14.60;77.71;98979.28;5064607;28;19954;-70
2022/09/27 10:44:20;;;;;;;;;;;;;;;14.34;77.19;98978.25;5066804;28;20368;-70
2022/09/27 10:46:48;;;;;;;;;;;;;;;14.03;79.42;98981.16;5068289;28;20332;-69
2022/09/27 10:49:18;;;;;;;;;;;;;;;13.92;79.71;98985.78;5064744;28;19970;-69
2022/09/27 10:51:46;;;;;;;;;;;;;;;13.97;80.52;98987.00;5065431;28;19925;-69
2022/09/27 10:54:20;;;;;;;;;;;;;;;13.71;80.59;98985.13;5067904;28;19925;-70
2022/09/27 10:56:54;;;;;;;;;;;;;;;13.66;81.73;98980.28;5066055;28;19928;-69
2022/09/27 10:59:20;;;;;;;;;;;;;;;13.64;81.50;98983.03;5061327;28;19933;-69
2022/09/27 11:01:49;;;;;;;;;;;;;;;13.69;81.57;98994.97;5065037;28;19973;-69
2022/09/27 11:04:18;;;;;;;;;;;;;;;13.89;82.54;98993.97;5064545;28;19998;-70
2022/09/27 11:06:44;;;;;;;;;;;;;;;14.01;81.25;98987.53;5071662;28;19970;-70
2022/09/27 11:09:18;;;;;;;;;;;;;;;14.09;81.79;98988.50;5068332;28;19930;-69
2022/09/27 11:11:46;;;;;;;;;;;;;;;13.92;81.41;98991.88;5066012;28;19932;-69
2022/09/27 11:14:23;;;;;;;;;;;;;;;14.67;82.41;98998.00;5067577;28;20119;-70
2022/09/27 11:17:03;;;;;;;;;;;;;;;14.49;78.22;98997.94;5068051;28;19939;-69
2022/09/27 11:19:35;;;;;;;;;;;;;;;14.59;80.14;98994.28;5065172;28;19931;-69
2022/09/27 11:22:07;;;;;;;;;;;;;;;15.15;81.03;98995.06;5067614;28;19924;-69
2022/09/27 11:24:47;;;;;;;;;;;;;;;15.36;77.39;98999.06;5080991;28;20399;-69
2022/09/27 11:27:21;;;;;;;;;;;;;;;15.13;76.89;98997.00;5072401;28;19925;-69
2022/09/27 11:29:55;;;;;;;;;;;;;;;15.37;75.63;98992.78;5064577;28;19932;-69
2022/09/27 11:32:27;;;;;;;;;;;;;;;15.51;74.41;99004.66;5064138;28;19924;-69
2022/09/27 11:35:02;;;;;;;;;;;;;;;14.71;74.95;99007.28;5065575;28;19924;-70
2022/09/27 11:37:32;;;;;;;;;;;;;;;14.10;75.93;98997.22;5061269;28;19924;-70
2022/09/27 11:40:10;;;;;;;;;;;;;;;13.89;76.82;98999.25;5065132;28;19925;-70
2022/09/27 11:42:50;;;;;;;;;;;;;;;14.57;77.91;99001.50;5064055;28;19998;-70
2022/09/27 11:45:35;;;;;;;;;;;;;;;15.11;77.34;98995.34;5083523;28;19924;-70
2022/09/27 11:48:07;;;;;;;;;;;;;;;15.65;75.62;98998.81;5085467;28;19924;-70
2022/09/27 11:50:45;;;;;;;;;;;;;;;15.88;71.66;99000.00;5084457;28;20437;-69
2022/09/27 11:53:17;;;;;;;;;;;;;;;15.88;70.57;98999.16;5083126;28;19924;-70
2022/09/27 11:55:47;;;;;;;;;;;;;;;15.98;70.68;98995.44;5065600;28;20351;-69
2022/09/27 11:58:19;;;;;;;;;;;;;;;15.94;69.13;98998.53;5066274;28;19925;-69
2022/09/27 12:00:54;;;;;;;;;;;;;;;15.04;70.27;99004.00;5063560;28;19924;-69
2022/09/27 12:03:36;;;;;;;;;;;;;;;14.67;71.38;99000.66;5064564;28;19978;-70
2022/09/27 12:06:07;;;;;;;;;;;;;;;14.71;72.50;99007.28;5066290;28;20338;-69
2022/09/27 12:08:38;;;;;;;;;;;;;;;14.41;72.50;99003.94;5064450;28;19936;-69
2022/09/27 12:11:10;;;;;;;;;;;;;;;14.48;73.19;99004.22;5056871;28;19929;-69
2022/09/27 12:13:40;;;;;;;;;;;;;;;14.65;71.58;99010.50;5061391;28;19978;-69
2022/09/27 12:16:06;;;;;;;;;;;;;;;14.92;72.51;99005.22;5065103;28;20309;-69
2022/09/27 12:18:37;;;;;;;;;;;;;;;15.63;68.84;99007.91;5063687;28;19924;-69
2022/09/27 12:21:04;;;;;;;;;;;;;;;15.87;69.05;99002.78;5063526;28;19932;-69
2022/09/27 12:23:35;;;;;;;;;;;;;;;15.97;69.80;99006.97;5065791;28;19929;-69
2022/09/27 12:26:04;;;;;;;;;;;;;;;15.77;67.14;99018.75;5065317;28;19925;-69
2022/09/27 12:28:35;;;;;;;;;;;;;;;15.90;67.09;99005.09;5064526;28;19968;-68
2022/09/27 12:31:07;;;;;;;;;;;;;;;15.96;65.59;99009.78;5062678;28;20376;-69
2022/09/27 12:33:37;;;;;;;;;;;;;;;16.52;67.15;99010.09;5063795;28;20406;-68
2022/09/27 12:36:06;;;;;;;;;;;;;;;16.98;63.95;99008.81;5063490;28;19993;-68
2022/09/27 12:38:37;;;;;;;;;;;;;;;16.97;63.41;99011.59;5063098;28;19924;-68
2022/09/27 12:41:05;;;;;;;;;;;;;;;16.69;63.72;99018.97;5062926;28;19925;-69
2022/09/27 12:43:31;;;;;;;;;;;;;;;16.87;60.91;99014.41;5063046;28;19924;-69
2022/09/27 12:46:01;;;;;;;;;;;;;;;16.43;61.81;99016.34;5066055;28;19925;-69
2022/09/27 12:48:32;;;;;;;;;;;;;;;16.26;61.37;99014.59;5073513;28;19924;-69
2022/09/27 12:51:06;;;;;;;;;;;;;;;16.22;61.72;99017.72;5083514;28;19924;-69
2022/09/27 12:53:42;;;;;;;;;;;;;;;16.06;60.73;99021.94;5084819;28;20287;-69
2022/09/27 12:56:16;;;;;;;;;;;;;;;15.92;60.68;99027.78;5070595;28;19936;-68
2022/09/27 12:58:59;;;;;;;;;;;;;;;15.49;60.69;99025.94;5067903;28;19932;-69
2022/09/27 13:01:33;;;;;;;;;;;;;;;15.58;61.48;99030.31;5067062;28;19974;-69
2022/09/27 13:04:11;;;;;;;;;;;;;;;15.38;61.54;99025.28;5068449;28;19925;-69